createdAt,value
2023-01-18T00:00:40.392Z,70.24
2023-01-18T00:03:11.260Z,70.79
2023-01-18T00:05:41.078Z,70.75
2023-01-18T00:08:12.932Z,70.68
2023-01-18T00:10:40.064Z,70.85
2023-01-18T00:13:07.978Z,70.94
2023-01-18T00:15:38.050Z,71.10
2023-01-18T00:18:05.126Z,71.07
2023-01-18T00:20:32.164Z,71.17
2023-01-18T00:23:02.511Z,71.26
2023-01-18T00:25:30.370Z,71.34
2023-01-18T00:27:57.376Z,71.78
2023-01-18T00:30:28.200Z,71.67
2023-01-18T00:32:59.232Z,71.68
2023-01-18T00:35:26.714Z,71.83
2023-01-18T00:37:54.195Z,71.83
2023-01-18T00:40:22.939Z,72.00
2023-01-18T00:43:08.133Z,71.90
2023-01-18T00:45:34.748Z,72.08
2023-01-18T00:48:02.636Z,71.93
2023-01-18T00:50:29.542Z,72.08
2023-01-18T00:52:58.792Z,72.15
2023-01-18T00:55:26.481Z,71.97
2023-01-18T00:57:53.089Z,72.15
2023-01-18T01:00:20.401Z,72.03
2023-01-18T01:02:47.022Z,71.78
2023-01-18T01:05:41.035Z,71.93
2023-01-18T01:08:07.803Z,71.81
2023-01-18T01:10:35.172Z,71.52
2023-01-18T01:13:20.282Z,71.37
2023-01-18T01:16:05.764Z,71.16
2023-01-18T01:18:50.528Z,71.08
2023-01-18T01:21:35.542Z,71.28
2023-01-18T01:24:20.998Z,71.08
2023-01-18T01:26:47.549Z,71.01
2023-01-18T01:29:14.167Z,71.00
2023-01-18T01:31:40.902Z,70.93
2023-01-18T01:34:07.545Z,71.02
2023-01-18T01:36:34.387Z,71.08
2023-01-18T01:39:01.176Z,71.08
2023-01-18T01:41:31.226Z,71.21
2023-01-18T01:44:24.490Z,71.23
2023-01-18T01:47:04.245Z,71.25
2023-01-18T01:49:40.101Z,71.15
2023-01-18T01:52:15.409Z,71.01
2023-01-18T01:54:53.574Z,71.14
2023-01-18T01:57:24.233Z,71.33
2023-01-18T01:59:59.891Z,71.30
2023-01-18T02:02:27.586Z,71.24
2023-01-18T02:04:55.538Z,71.17
2023-01-18T02:07:23.987Z,71.12
2023-01-18T02:09:52.500Z,71.10
2023-01-18T02:12:19.738Z,71.09
2023-01-18T02:14:46.615Z,71.04
2023-01-18T02:17:16.252Z,70.83
2023-01-18T02:20:07.799Z,70.69
2023-01-18T02:22:59.677Z,70.81
2023-01-18T02:25:41.644Z,70.55
2023-01-18T02:28:17.175Z,70.08
2023-01-18T02:30:51.939Z,70.25
2023-01-18T02:33:36.507Z,69.71
2023-01-18T02:36:05.189Z,69.93
2023-01-18T02:38:41.407Z,70.28
2023-01-18T02:41:52.954Z,70.08
2023-01-18T02:44:47.384Z,70.33
2023-01-18T02:47:14.550Z,70.33
2023-01-18T02:49:42.032Z,70.45
2023-01-18T02:52:39.835Z,70.37
2023-01-18T02:55:13.820Z,70.65
2023-01-18T02:57:40.640Z,70.40
2023-01-18T03:00:10.353Z,69.92
2023-01-18T03:02:38.982Z,69.82
2023-01-18T03:05:10.585Z,69.58
2023-01-18T03:07:53.411Z,69.35
2023-01-18T03:10:21.318Z,69.13
2023-01-18T03:12:47.848Z,69.17
2023-01-18T03:15:20.410Z,69.11
2023-01-18T03:17:57.377Z,69.39
2023-01-18T03:20:29.035Z,69.55
2023-01-18T03:23:34.067Z,69.68
2023-01-18T03:26:03.555Z,70.10
2023-01-18T03:29:00.436Z,70.23
2023-01-18T03:32:10.659Z,70.12
2023-01-18T03:34:53.822Z,70.07
2023-01-18T03:37:29.814Z,69.79
2023-01-18T03:40:06.984Z,69.60
2023-01-18T03:43:14.258Z,69.33
2023-01-18T03:45:45.937Z,69.13
2023-01-18T03:48:13.317Z,68.78
2023-01-18T03:50:51.855Z,68.67
2023-01-18T03:53:41.568Z,68.37
2023-01-18T03:56:20.596Z,67.82
2023-01-18T03:58:51.377Z,68.12
2023-01-18T04:01:18.362Z,68.03
2023-01-18T04:03:45.026Z,67.89
2023-01-18T04:06:11.749Z,67.83
2023-01-18T04:08:38.377Z,68.03
2023-01-18T04:11:05.031Z,67.66
2023-01-18T04:13:31.584Z,67.34
2023-01-18T04:15:58.207Z,67.56
2023-01-18T04:18:25.954Z,67.59
2023-01-18T04:20:56.408Z,67.68
2023-01-18T04:23:24.109Z,67.37
2023-01-18T04:25:51.754Z,67.39
2023-01-18T04:28:25.439Z,67.57
2023-01-18T04:30:57.024Z,67.74
2023-01-18T04:33:26.835Z,67.38
2023-01-18T04:35:56.532Z,67.61
2023-01-18T04:38:23.588Z,67.63
2023-01-18T04:40:50.849Z,67.55
2023-01-18T04:43:18.021Z,67.30
2023-01-18T04:45:56.561Z,67.65
2023-01-18T04:48:23.765Z,67.72
2023-01-18T04:50:50.669Z,67.70
2023-01-18T04:53:18.156Z,68.01
2023-01-18T04:55:45.933Z,68.16
2023-01-18T04:58:12.688Z,68.28
2023-01-18T05:00:42.296Z,68.63
2023-01-18T05:03:11.016Z,68.58
2023-01-18T05:05:37.770Z,68.65
2023-01-18T05:08:04.564Z,69.14
2023-01-18T05:10:33.608Z,69.14
2023-01-18T05:13:00.789Z,69.29
2023-01-18T05:15:27.705Z,69.54
2023-01-18T05:17:54.254Z,69.93
2023-01-18T05:20:20.846Z,70.04
2023-01-18T05:22:47.414Z,70.11
2023-01-18T05:25:14.023Z,70.28
2023-01-18T05:27:40.659Z,70.68
2023-01-18T05:30:08.798Z,70.81
2023-01-18T05:32:35.604Z,70.74
2023-01-18T05:35:03.733Z,70.77
2023-01-18T05:37:30.363Z,70.92
2023-01-18T05:39:57.400Z,70.83
2023-01-18T05:42:24.025Z,70.85
2023-01-18T05:44:50.584Z,71.22
2023-01-18T05:47:17.159Z,70.99
2023-01-18T05:49:43.694Z,70.69
2023-01-18T05:52:10.373Z,71.20
2023-01-18T05:54:36.970Z,72.32
2023-01-18T05:57:03.819Z,75.01
2023-01-18T05:59:30.410Z,76.27
2023-01-18T06:01:57.037Z,74.54
2023-01-18T06:04:23.678Z,69.12
2023-01-18T06:06:50.264Z,67.49
2023-01-18T06:09:17.427Z,67.16
2023-01-18T06:11:44.014Z,67.06
2023-01-18T06:14:10.574Z,67.50
2023-01-18T06:16:37.174Z,67.77
2023-01-18T06:19:03.732Z,68.69
2023-01-18T06:21:30.321Z,68.78
2023-01-18T06:23:56.893Z,68.65
2023-01-18T06:26:23.944Z,69.02
2023-01-18T06:28:50.534Z,69.14
2023-01-18T06:31:17.201Z,69.39
2023-01-18T06:33:43.796Z,69.42
2023-01-18T06:36:10.340Z,69.48
2023-01-18T06:38:36.975Z,69.79
2023-01-18T06:41:03.577Z,69.92
2023-01-18T06:43:30.215Z,70.00
2023-01-18T06:45:57.702Z,70.44
2023-01-18T06:48:25.174Z,70.68
2023-01-18T06:50:52.704Z,71.07
2023-01-18T06:53:22.669Z,71.11
2023-01-18T06:55:57.085Z,71.33
2023-01-18T06:58:25.831Z,71.61
2023-01-18T07:01:00.557Z,71.70
2023-01-18T07:03:28.892Z,72.15
2023-01-18T07:06:00.359Z,72.13
2023-01-18T07:08:28.464Z,72.49
2023-01-18T07:10:55.239Z,72.62
2023-01-18T07:13:22.139Z,72.35
2023-01-18T07:15:58.011Z,72.58
2023-01-18T07:18:26.443Z,72.81
2023-01-18T07:21:00.415Z,73.07
2023-01-18T07:23:27.658Z,73.33
2023-01-18T07:26:05.487Z,73.14
2023-01-18T07:28:32.872Z,72.80
2023-01-18T07:31:00.427Z,72.78
2023-01-18T07:33:28.183Z,72.62
2023-01-18T07:35:57.247Z,72.44
2023-01-18T07:38:24.818Z,72.54
2023-01-18T07:40:51.507Z,72.48
2023-01-18T07:43:18.321Z,72.66
2023-01-18T07:45:52.289Z,72.50
2023-01-18T07:48:18.894Z,72.36
2023-01-18T07:50:59.248Z,72.30
2023-01-18T07:53:26.965Z,72.50
2023-01-18T07:55:54.341Z,72.12
2023-01-18T07:58:21.472Z,71.63
2023-01-18T08:00:48.050Z,71.33
2023-01-18T08:03:16.678Z,71.34
2023-01-18T08:05:44.220Z,71.30
2023-01-18T08:08:12.930Z,71.11
2023-01-18T08:10:40.007Z,70.96
2023-01-18T08:13:10.181Z,70.99
2023-01-18T08:15:38.153Z,71.19
2023-01-18T08:18:06.366Z,70.61
2023-01-18T08:20:33.135Z,70.63
2023-01-18T08:23:01.371Z,69.97
2023-01-18T08:25:29.903Z,70.38
2023-01-18T08:27:59.197Z,69.66
2023-01-18T08:30:31.349Z,69.92
2023-01-18T08:33:00.376Z,70.14
2023-01-18T08:35:29.278Z,69.94
2023-01-18T08:37:56.339Z,69.87
2023-01-18T08:40:26.324Z,69.13
2023-01-18T08:42:58.072Z,69.48
2023-01-18T08:45:25.054Z,69.17
2023-01-18T08:48:03.520Z,69.50
2023-01-18T08:50:31.190Z,69.52
2023-01-18T08:53:00.166Z,69.37
2023-01-18T08:55:27.748Z,69.76
2023-01-18T08:57:54.956Z,69.48
2023-01-18T09:00:26.937Z,69.58
2023-01-18T09:02:53.734Z,69.21
2023-01-18T09:05:20.422Z,69.32
2023-01-18T09:07:47.569Z,69.19
2023-01-18T09:10:14.368Z,69.38
2023-01-18T09:12:41.214Z,69.14
2023-01-18T09:15:08.751Z,69.01
2023-01-18T09:17:35.318Z,68.61
2023-01-18T09:20:02.004Z,68.14
2023-01-18T09:22:28.583Z,68.09
2023-01-18T09:24:55.107Z,68.12
2023-01-18T09:27:21.718Z,67.81
2023-01-18T09:29:52.194Z,68.01
2023-01-18T09:32:22.046Z,68.13
2023-01-18T09:34:50.714Z,68.08
2023-01-18T09:37:19.076Z,68.44
2023-01-18T09:39:51.855Z,67.94
2023-01-18T09:42:24.936Z,67.62
2023-01-18T09:44:55.427Z,67.87
2023-01-18T09:47:27.356Z,67.58
2023-01-18T09:50:02.448Z,68.02
2023-01-18T09:52:43.997Z,67.53
2023-01-18T09:55:19.652Z,67.23
2023-01-18T09:57:58.470Z,66.67
2023-01-18T10:00:28.798Z,65.90
2023-01-18T10:03:01.267Z,66.30
2023-01-18T10:05:33.334Z,65.94
2023-01-18T10:08:02.792Z,65.98
2023-01-18T10:10:44.134Z,65.45
2023-01-18T10:13:47.207Z,65.45
2023-01-18T10:16:15.317Z,64.94
2023-01-18T10:18:48.210Z,64.72
2023-01-18T10:21:44.194Z,64.82
2023-01-18T10:24:32.252Z,64.61
2023-01-18T10:27:24.120Z,64.00
2023-01-18T10:30:15.103Z,63.41
2023-01-18T10:32:52.227Z,62.96
2023-01-18T10:35:31.343Z,62.02
2023-01-18T10:38:03.345Z,62.17
2023-01-18T10:40:29.843Z,62.70
2023-01-18T10:43:04.062Z,62.68
2023-01-18T10:45:33.730Z,62.29
2023-01-18T10:48:20.477Z,62.59
2023-01-18T10:50:52.331Z,61.97
2023-01-18T10:53:33.319Z,61.10
2023-01-18T10:56:07.341Z,60.74
2023-01-18T10:58:45.755Z,60.83
2023-01-18T11:01:22.542Z,60.82
2023-01-18T11:03:53.040Z,60.64
2023-01-18T11:06:20.997Z,60.19
2023-01-18T11:08:49.779Z,60.36
2023-01-18T11:11:19.077Z,60.12
2023-01-18T11:13:48.460Z,60.08
2023-01-18T11:16:23.172Z,59.55
2023-01-18T11:19:04.459Z,59.29
2023-01-18T11:21:42.688Z,59.25
2023-01-18T11:24:16.102Z,57.76
2023-01-18T11:27:23.332Z,58.42
2023-01-18T11:29:50.600Z,59.07
2023-01-18T11:32:26.993Z,59.01
2023-01-18T11:34:56.141Z,59.62
2023-01-18T11:37:35.567Z,59.37
2023-01-18T11:40:20.654Z,58.07
2023-01-18T11:42:50.594Z,56.99
2023-01-18T11:45:46.192Z,57.20
2023-01-18T11:48:30.707Z,57.05
2023-01-18T11:50:58.638Z,57.24
2023-01-18T11:54:02.802Z,57.17
2023-01-18T11:56:47.710Z,55.96
2023-01-18T11:59:31.114Z,56.37
2023-01-18T12:02:35.386Z,55.77
2023-01-18T12:05:07.794Z,56.05
2023-01-18T12:07:53.955Z,56.20
2023-01-18T12:10:34.096Z,56.78
2023-01-18T12:13:21.003Z,56.64
2023-01-18T12:16:03.056Z,57.39
2023-01-18T12:18:47.974Z,56.44
2023-01-18T12:21:21.219Z,56.71
2023-01-18T12:24:07.064Z,56.26
2023-01-18T12:26:47.334Z,56.22
2023-01-18T12:29:36.529Z,54.94
2023-01-18T12:32:12.268Z,55.89
2023-01-18T12:34:47.017Z,56.48
2023-01-18T12:37:26.006Z,56.48
2023-01-18T12:40:11.066Z,56.20
2023-01-18T12:43:04.067Z,56.01
2023-01-18T12:45:39.092Z,55.94
2023-01-18T12:48:09.017Z,56.05
2023-01-18T12:50:38.523Z,56.26
2023-01-18T12:53:16.280Z,56.50
2023-01-18T12:55:46.819Z,56.61
2023-01-18T12:58:19.135Z,57.19
2023-01-18T13:00:52.149Z,57.62
2023-01-18T13:03:25.152Z,57.14
2023-01-18T13:06:00.093Z,55.59
2023-01-18T13:08:52.322Z,55.01
2023-01-18T13:11:27.066Z,56.23
2023-01-18T13:14:07.168Z,55.34
2023-01-18T13:16:52.422Z,55.98
2023-01-18T13:19:24.808Z,56.84
2023-01-18T13:22:06.613Z,56.92
2023-01-18T13:24:39.849Z,56.72
2023-01-18T13:27:08.952Z,57.54
2023-01-18T13:29:35.984Z,57.20
2023-01-18T13:32:03.182Z,57.21
2023-01-18T13:34:34.673Z,57.53
2023-01-18T13:37:14.586Z,55.61
2023-01-18T13:39:47.815Z,55.25
2023-01-18T13:42:14.320Z,55.59
2023-01-18T13:44:44.431Z,56.39
2023-01-18T13:47:46.752Z,56.00
2023-01-18T13:50:28.607Z,56.10
2023-01-18T13:53:25.291Z,56.23
2023-01-18T13:55:54.597Z,55.89
2023-01-18T13:58:28.343Z,56.22
2023-01-18T14:00:58.574Z,55.92
2023-01-18T14:03:28.606Z,56.42
2023-01-18T14:05:57.401Z,56.13
2023-01-18T14:08:29.181Z,56.25
2023-01-18T14:11:10.109Z,56.32
2023-01-18T14:13:45.785Z,56.67
2023-01-18T14:16:16.657Z,56.64
2023-01-18T14:18:51.557Z,56.81
2023-01-18T14:21:24.535Z,56.87
2023-01-18T14:24:08.673Z,55.56
2023-01-18T14:26:37.954Z,55.16
2023-01-18T14:29:12.147Z,55.23
2023-01-18T14:31:43.011Z,55.32
2023-01-18T14:34:30.918Z,55.90
2023-01-18T14:36:58.130Z,56.32
2023-01-18T14:39:25.370Z,56.16
2023-01-18T14:41:56.496Z,56.80
2023-01-18T14:44:26.747Z,56.32
2023-01-18T14:46:58.217Z,56.32
2023-01-18T14:49:38.741Z,56.38
2023-01-18T14:52:08.687Z,57.15
2023-01-18T14:54:35.523Z,56.91
2023-01-18T14:57:04.219Z,56.69
2023-01-18T14:59:32.137Z,56.48
2023-01-18T15:02:01.998Z,55.97
2023-01-18T15:04:31.198Z,55.59
2023-01-18T15:07:03.751Z,55.52
2023-01-18T15:09:36.903Z,55.82
2023-01-18T15:12:07.715Z,56.12
2023-01-18T15:14:43.118Z,55.78
2023-01-18T15:17:21.369Z,55.47
2023-01-18T15:19:54.541Z,55.46
2023-01-18T15:22:27.224Z,55.06
2023-01-18T15:24:57.520Z,55.41
2023-01-18T15:27:24.078Z,55.53
2023-01-18T15:29:53.867Z,55.79
2023-01-18T15:32:27.079Z,56.08
2023-01-18T15:34:55.710Z,56.36
2023-01-18T15:37:29.483Z,56.40
2023-01-18T15:40:03.664Z,56.63
2023-01-18T15:42:38.718Z,56.21
2023-01-18T15:45:16.911Z,56.42
2023-01-18T15:47:48.756Z,55.90
2023-01-18T15:50:24.463Z,56.47
2023-01-18T15:53:06.108Z,56.73
2023-01-18T15:55:35.109Z,56.76
2023-01-18T15:58:11.665Z,56.62
2023-01-18T16:00:53.227Z,56.28
2023-01-18T16:03:30.433Z,56.19
2023-01-18T16:06:07.872Z,55.79
2023-01-18T16:08:35.184Z,55.94
2023-01-18T16:11:01.847Z,55.92
2023-01-18T16:13:37.770Z,55.72
2023-01-18T16:16:16.171Z,56.15
2023-01-18T16:18:46.511Z,55.82
2023-01-18T16:21:21.000Z,56.32
2023-01-18T16:23:49.820Z,56.80
2023-01-18T16:26:24.277Z,57.50
2023-01-18T16:28:51.839Z,58.19
2023-01-18T16:31:20.939Z,58.80
2023-01-18T16:33:47.622Z,59.11
2023-01-18T16:36:17.996Z,59.70
2023-01-18T16:38:45.041Z,60.25
2023-01-18T16:41:12.928Z,60.53
2023-01-18T16:43:39.498Z,61.00
2023-01-18T16:46:06.362Z,61.43
2023-01-18T16:48:34.156Z,61.87
2023-01-18T16:51:01.421Z,62.38
2023-01-18T16:53:29.018Z,62.67
2023-01-18T16:55:56.753Z,62.53
2023-01-18T16:58:24.087Z,62.76
2023-01-18T17:01:11.395Z,63.03
2023-01-18T17:03:39.560Z,63.93
2023-01-18T17:06:06.881Z,63.93
2023-01-18T17:08:33.658Z,64.10
2023-01-18T17:11:00.223Z,64.86
2023-01-18T17:13:27.087Z,65.21
2023-01-18T17:15:53.703Z,65.00
2023-01-18T17:18:25.612Z,65.19
2023-01-18T17:20:52.776Z,65.29
2023-01-18T17:23:19.601Z,65.43
2023-01-18T17:25:46.501Z,65.52
2023-01-18T17:28:15.610Z,65.66
2023-01-18T17:30:44.122Z,65.98
2023-01-18T17:33:21.166Z,65.85
2023-01-18T17:35:49.197Z,66.15
2023-01-18T17:38:23.337Z,66.43
2023-01-18T17:40:51.168Z,66.89
2023-01-18T17:43:28.381Z,67.18
2023-01-18T17:46:01.976Z,67.82
2023-01-18T17:48:28.965Z,67.71
2023-01-18T17:50:55.543Z,67.75
2023-01-18T17:53:22.097Z,68.45
2023-01-18T17:55:48.660Z,68.41
2023-01-18T17:58:15.359Z,68.79
2023-01-18T18:00:42.077Z,68.97
2023-01-18T18:03:09.228Z,69.55
2023-01-18T18:05:36.111Z,69.95
2023-01-18T18:08:02.792Z,70.09
2023-01-18T18:10:29.394Z,70.23
2023-01-18T18:12:55.992Z,71.21
2023-01-18T18:15:23.504Z,71.01
2023-01-18T18:17:50.097Z,71.11
2023-01-18T18:20:17.242Z,70.95
2023-01-18T18:22:43.965Z,70.89
2023-01-18T18:25:10.709Z,71.32
2023-01-18T18:27:45.205Z,71.38
2023-01-18T18:30:13.080Z,71.15
2023-01-18T18:32:39.775Z,71.42
2023-01-18T18:35:19.455Z,71.49
2023-01-18T18:37:51.035Z,71.60
2023-01-18T18:40:17.844Z,71.79
2023-01-18T18:42:49.957Z,71.68
2023-01-18T18:45:27.152Z,71.94
2023-01-18T18:47:53.827Z,71.57
2023-01-18T18:50:20.512Z,71.85
2023-01-18T18:52:47.262Z,71.80
2023-01-18T18:55:14.045Z,71.97
2023-01-18T18:57:40.702Z,71.82
2023-01-18T19:00:08.123Z,71.84
2023-01-18T19:02:35.350Z,72.17
2023-01-18T19:05:02.245Z,71.97
2023-01-18T19:07:29.151Z,72.17
2023-01-18T19:09:55.796Z,72.25
2023-01-18T19:12:22.526Z,72.16
2023-01-18T19:14:49.347Z,72.02
2023-01-18T19:17:28.940Z,72.05
2023-01-18T19:19:56.751Z,72.02
2023-01-18T19:22:23.524Z,72.29
2023-01-18T19:24:50.083Z,72.39
2023-01-18T19:27:16.839Z,72.04
2023-01-18T19:29:43.999Z,72.40
2023-01-18T19:32:10.640Z,72.85
2023-01-18T19:34:41.178Z,72.48
2023-01-18T19:37:08.263Z,72.86
2023-01-18T19:39:35.023Z,72.76
2023-01-18T19:42:02.422Z,72.80
2023-01-18T19:44:30.735Z,72.67
2023-01-18T19:46:57.448Z,72.81
2023-01-18T19:49:27.337Z,73.23
2023-01-18T19:51:54.787Z,73.17
2023-01-18T19:54:21.961Z,73.56
2023-01-18T19:56:48.742Z,73.35
2023-01-18T19:59:15.417Z,73.15
2023-01-18T20:01:42.325Z,73.57
2023-01-18T20:04:09.674Z,73.39
2023-01-18T20:06:39.933Z,73.37
2023-01-18T20:09:15.796Z,73.78
2023-01-18T20:11:44.812Z,73.81
2023-01-18T20:14:11.917Z,73.78
2023-01-18T20:16:39.142Z,74.00
2023-01-18T20:19:05.761Z,74.02
2023-01-18T20:21:32.333Z,74.26
2023-01-18T20:23:59.007Z,74.35
2023-01-18T20:26:35.861Z,74.47
2023-01-18T20:29:07.076Z,74.36
2023-01-18T20:31:35.972Z,74.60
2023-01-18T20:34:03.191Z,74.45
2023-01-18T20:36:29.904Z,74.91
2023-01-18T20:38:57.238Z,74.76
2023-01-18T20:41:23.807Z,74.98
2023-01-18T20:43:50.393Z,75.08
2023-01-18T20:46:17.051Z,75.26
2023-01-18T20:48:44.014Z,75.40
2023-01-18T20:51:10.622Z,75.43
2023-01-18T20:53:39.922Z,75.67
2023-01-18T20:56:27.199Z,75.66
2023-01-18T20:58:55.398Z,75.86
2023-01-18T21:01:22.118Z,75.93
2023-01-18T21:03:55.516Z,75.95
2023-01-18T21:06:22.112Z,76.23
2023-01-18T21:08:52.532Z,75.91
2023-01-18T21:11:22.886Z,76.27
2023-01-18T21:13:50.264Z,76.28
2023-01-18T21:16:16.993Z,76.71
2023-01-18T21:18:43.937Z,76.82
2023-01-18T21:21:10.557Z,76.61
2023-01-18T21:23:39.905Z,76.67
2023-01-18T21:26:11.291Z,76.76
2023-01-18T21:28:38.193Z,77.12
2023-01-18T21:31:05.505Z,77.01
2023-01-18T21:33:33.216Z,77.12
2023-01-18T21:36:07.713Z,77.06
2023-01-18T21:38:34.807Z,77.36
2023-01-18T21:41:21.430Z,78.05
2023-01-18T21:44:06.548Z,77.99
2023-01-18T21:46:33.145Z,77.72
2023-01-18T21:49:06.838Z,77.80
2023-01-18T21:51:52.938Z,77.87
2023-01-18T21:54:21.469Z,78.00
2023-01-18T21:56:48.008Z,77.93
2023-01-18T21:59:14.914Z,78.11
2023-01-18T22:01:44.394Z,78.19
2023-01-18T22:04:33.939Z,78.43
2023-01-18T22:07:01.494Z,78.59
2023-01-18T22:09:29.796Z,78.40
2023-01-18T22:11:57.467Z,78.09
2023-01-18T22:14:25.193Z,78.12
2023-01-18T22:16:51.896Z,78.38
2023-01-18T22:19:21.311Z,78.22
2023-01-18T22:21:49.410Z,78.12
2023-01-18T22:24:17.275Z,78.00
2023-01-18T22:26:45.244Z,78.33
2023-01-18T22:29:12.424Z,78.00
2023-01-18T22:31:39.526Z,78.18
2023-01-18T22:34:07.483Z,78.09
2023-01-18T22:36:34.445Z,77.98
2023-01-18T22:39:01.214Z,77.98
2023-01-18T22:41:28.963Z,77.80
2023-01-18T22:43:56.083Z,77.83
2023-01-18T22:46:24.057Z,77.81
2023-01-18T22:48:51.245Z,77.89
2023-01-18T22:51:22.222Z,77.92
2023-01-18T22:53:49.575Z,77.94
2023-01-18T22:56:21.605Z,77.93
2023-01-18T22:58:49.091Z,77.89
2023-01-18T23:01:25.210Z,78.26
2023-01-18T23:03:54.832Z,78.27
2023-01-18T23:06:22.141Z,78.28
2023-01-18T23:08:49.490Z,78.34
2023-01-18T23:11:25.163Z,78.31
2023-01-18T23:14:14.992Z,78.37
2023-01-18T23:17:00.890Z,78.51
2023-01-18T23:19:29.630Z,78.43
2023-01-18T23:21:57.329Z,78.44
2023-01-18T23:24:24.065Z,78.73
2023-01-18T23:26:51.314Z,78.90
2023-01-18T23:29:18.379Z,78.94
2023-01-18T23:31:45.066Z,78.85
2023-01-18T23:34:11.681Z,78.65
2023-01-18T23:36:38.359Z,78.96
2023-01-18T23:39:23.457Z,78.96
2023-01-18T23:42:08.470Z,78.72
2023-01-18T23:44:53.868Z,78.89
2023-01-18T23:47:39.123Z,78.88
2023-01-18T23:50:24.563Z,79.04
2023-01-18T23:53:09.808Z,78.73
2023-01-18T23:55:36.383Z,78.90
2023-01-18T23:58:03.251Z,78.98
